sensor_id;sensor_type;location;lat;lon;timestamp;P1;durP1;ratioP1;P2;durP2;ratioP2
45548;SDS011;31270;48.328;10.096;2022-09-09T00:00:20;4.83;;;2.73;;
45548;SDS011;31270;48.328;10.096;2022-09-09T00:03:10;7.63;;;2.77;;
45548;SDS011;31270;48.328;10.096;2022-09-09T00:05:48;6.88;;;3.00;;
45548;SDS011;31270;48.328;10.096;2022-09-09T00:08:51;5.83;;;2.90;;
45548;SDS011;31270;48.328;10.096;2022-09-09T00:11:24;7.87;;;2.90;;
45548;SDS011;31270;48.328;10.096;2022-09-09T00:13:56;4.10;;;2.57;;
45548;SDS011;31270;48.328;10.096;2022-09-09T00:16:24;4.50;;;2.53;;
45548;SDS011;31270;48.328;10.096;2022-09-09T00:19:04;3.17;;;2.80;;
45548;SDS011;31270;48.328;10.096;2022-09-09T00:24:28;3.63;;;2.70;;
45548;SDS011;31270;48.328;10.096;2022-09-09T00:29:53;4.57;;;2.40;;
45548;SDS011;31270;48.328;10.096;2022-09-09T00:32:37;4.40;;;2.53;;
45548;SDS011;31270;48.328;10.096;2022-09-09T00:37:48;4.87;;;2.40;;
45548;SDS011;31270;48.328;10.096;2022-09-09T00:40:26;3.97;;;2.60;;
45548;SDS011;31270;48.328;10.096;2022-09-09T00:43:05;4.63;;;2.70;;
45548;SDS011;31270;48.328;10.096;2022-09-09T00:51:28;3.47;;;2.73;;
45548;SDS011;31270;48.328;10.096;2022-09-09T00:57:35;4.27;;;2.40;;
45548;SDS011;31270;48.328;10.096;2022-09-09T00:59:46;6.53;;;2.50;;
45548;SDS011;31270;48.328;10.096;2022-09-09T01:02:35;5.67;;;2.80;;
45548;SDS011;31270;48.328;10.096;2022-09-09T01:05:12;5.23;;;2.80;;
45548;SDS011;31270;48.328;10.096;2022-09-09T01:07:43;6.73;;;3.13;;
45548;SDS011;31270;48.328;10.096;2022-09-09T01:10:30;3.47;;;2.90;;
45548;SDS011;31270;48.328;10.096;2022-09-09T01:13:17;5.77;;;3.23;;
45548;SDS011;31270;48.328;10.096;2022-09-09T01:15:57;4.67;;;3.60;;
45548;SDS011;31270;48.328;10.096;2022-09-09T01:18:26;6.43;;;3.47;;
45548;SDS011;31270;48.328;10.096;2022-09-09T01:21:09;5.47;;;3.57;;
45548;SDS011;31270;48.328;10.096;2022-09-09T01:24:13;7.70;;;3.80;;
45548;SDS011;31270;48.328;10.096;2022-09-09T01:26:46;6.10;;;3.53;;
45548;SDS011;31270;48.328;10.096;2022-09-09T01:29:14;5.07;;;3.30;;
45548;SDS011;31270;48.328;10.096;2022-09-09T01:31:58;6.87;;;3.50;;
45548;SDS011;31270;48.328;10.096;2022-09-09T01:34:25;3.87;;;3.47;;
45548;SDS011;31270;48.328;10.096;2022-09-09T01:37:05;6.23;;;3.47;;
45548;SDS011;31270;48.328;10.096;2022-09-09T01:39:36;4.80;;;3.20;;
45548;SDS011;31270;48.328;10.096;2022-09-09T01:42:06;6.53;;;3.97;;
45548;SDS011;31270;48.328;10.096;2022-09-09T01:44:33;6.80;;;3.30;;
45548;SDS011;31270;48.328;10.096;2022-09-09T01:47:00;6.33;;;3.97;;
45548;SDS011;31270;48.328;10.096;2022-09-09T01:49:26;4.97;;;3.90;;
45548;SDS011;31270;48.328;10.096;2022-09-09T01:51:53;5.63;;;3.37;;
45548;SDS011;31270;48.328;10.096;2022-09-09T01:54:20;4.27;;;3.50;;
45548;SDS011;31270;48.328;10.096;2022-09-09T01:59:42;8.50;;;3.93;;
45548;SDS011;31270;48.328;10.096;2022-09-09T02:07:40;8.63;;;4.40;;
45548;SDS011;31270;48.328;10.096;2022-09-09T02:12:40;5.73;;;3.90;;
45548;SDS011;31270;48.328;10.096;2022-09-09T02:15:13;5.70;;;4.13;;
45548;SDS011;31270;48.328;10.096;2022-09-09T02:17:45;8.73;;;5.10;;
45548;SDS011;31270;48.328;10.096;2022-09-09T02:20:12;4.20;;;3.80;;
45548;SDS011;31270;48.328;10.096;2022-09-09T02:22:40;7.80;;;4.17;;
45548;SDS011;31270;48.328;10.096;2022-09-09T02:25:09;3.90;;;3.47;;
45548;SDS011;31270;48.328;10.096;2022-09-09T02:27:40;6.17;;;3.60;;
45548;SDS011;31270;48.328;10.096;2022-09-09T02:30:08;4.60;;;3.50;;
45548;SDS011;31270;48.328;10.096;2022-09-09T02:32:35;4.40;;;3.63;;
45548;SDS011;31270;48.328;10.096;2022-09-09T02:35:08;5.70;;;4.00;;
45548;SDS011;31270;48.328;10.096;2022-09-09T02:37:37;8.90;;;4.40;;
45548;SDS011;31270;48.328;10.096;2022-09-09T02:40:04;5.73;;;4.30;;
45548;SDS011;31270;48.328;10.096;2022-09-09T02:42:37;6.03;;;4.37;;
45548;SDS011;31270;48.328;10.096;2022-09-09T02:45:14;8.33;;;4.60;;
45548;SDS011;31270;48.328;10.096;2022-09-09T02:47:47;5.27;;;4.17;;
45548;SDS011;31270;48.328;10.096;2022-09-09T02:52:54;6.97;;;4.63;;
45548;SDS011;31270;48.328;10.096;2022-09-09T02:55:41;6.47;;;5.00;;
45548;SDS011;31270;48.328;10.096;2022-09-09T02:58:14;10.90;;;5.03;;
45548;SDS011;31270;48.328;10.096;2022-09-09T03:00:43;6.73;;;4.90;;
45548;SDS011;31270;48.328;10.096;2022-09-09T03:03:13;9.47;;;4.97;;
45548;SDS011;31270;48.328;10.096;2022-09-09T03:05:41;7.80;;;5.03;;
45548;SDS011;31270;48.328;10.096;2022-09-09T03:08:07;9.43;;;5.20;;
45548;SDS011;31270;48.328;10.096;2022-09-09T03:10:32;7.80;;;5.10;;
45548;SDS011;31270;48.328;10.096;2022-09-09T03:12:59;7.20;;;5.30;;
45548;SDS011;31270;48.328;10.096;2022-09-09T03:15:25;6.57;;;5.63;;
45548;SDS011;31270;48.328;10.096;2022-09-09T03:17:55;7.13;;;5.73;;
45548;SDS011;31270;48.328;10.096;2022-09-09T03:20:22;9.00;;;5.10;;
45548;SDS011;31270;48.328;10.096;2022-09-09T03:22:49;9.10;;;5.10;;
45548;SDS011;31270;48.328;10.096;2022-09-09T03:25:15;6.60;;;5.33;;
45548;SDS011;31270;48.328;10.096;2022-09-09T03:27:41;7.53;;;5.80;;
45548;SDS011;31270;48.328;10.096;2022-09-09T03:30:06;9.07;;;5.63;;
45548;SDS011;31270;48.328;10.096;2022-09-09T03:32:32;8.70;;;5.80;;
45548;SDS011;31270;48.328;10.096;2022-09-09T03:34:58;9.40;;;5.63;;
45548;SDS011;31270;48.328;10.096;2022-09-09T03:37:24;10.13;;;6.03;;
45548;SDS011;31270;48.328;10.096;2022-09-09T03:39:49;11.47;;;5.93;;
45548;SDS011;31270;48.328;10.096;2022-09-09T03:42:15;8.37;;;5.37;;
45548;SDS011;31270;48.328;10.096;2022-09-09T03:44:44;12.97;;;6.03;;
45548;SDS011;31270;48.328;10.096;2022-09-09T03:47:15;7.77;;;5.33;;
45548;SDS011;31270;48.328;10.096;2022-09-09T03:49:43;9.70;;;5.13;;
45548;SDS011;31270;48.328;10.096;2022-09-09T03:52:09;8.97;;;5.80;;
45548;SDS011;31270;48.328;10.096;2022-09-09T03:54:34;8.47;;;5.57;;
45548;SDS011;31270;48.328;10.096;2022-09-09T03:57:00;8.20;;;5.20;;
45548;SDS011;31270;48.328;10.096;2022-09-09T03:59:26;6.67;;;4.70;;
45548;SDS011;31270;48.328;10.096;2022-09-09T04:01:52;5.57;;;4.77;;
45548;SDS011;31270;48.328;10.096;2022-09-09T04:04:18;6.43;;;4.93;;
45548;SDS011;31270;48.328;10.096;2022-09-09T04:06:45;6.40;;;4.43;;
45548;SDS011;31270;48.328;10.096;2022-09-09T04:09:10;7.23;;;4.33;;
45548;SDS011;31270;48.328;10.096;2022-09-09T04:11:36;5.00;;;4.13;;
45548;SDS011;31270;48.328;10.096;2022-09-09T04:14:02;11.70;;;4.40;;
45548;SDS011;31270;48.328;10.096;2022-09-09T04:16:30;5.40;;;4.20;;
45548;SDS011;31270;48.328;10.096;2022-09-09T04:18:57;4.27;;;3.47;;
45548;SDS011;31270;48.328;10.096;2022-09-09T04:21:23;6.80;;;3.93;;
45548;SDS011;31270;48.328;10.096;2022-09-09T04:23:49;12.70;;;4.40;;
45548;SDS011;31270;48.328;10.096;2022-09-09T04:26:14;4.13;;;3.67;;
45548;SDS011;31270;48.328;10.096;2022-09-09T04:28:40;7.03;;;3.47;;
45548;SDS011;31270;48.328;10.096;2022-09-09T04:31:07;5.27;;;3.80;;
45548;SDS011;31270;48.328;10.096;2022-09-09T04:33:34;6.23;;;3.60;;
45548;SDS011;31270;48.328;10.096;2022-09-09T04:36:00;5.60;;;3.43;;
45548;SDS011;31270;48.328;10.096;2022-09-09T04:38:26;5.80;;;3.80;;
45548;SDS011;31270;48.328;10.096;2022-09-09T04:40:52;8.57;;;3.80;;
45548;SDS011;31270;48.328;10.096;2022-09-09T04:43:18;5.77;;;3.50;;
45548;SDS011;31270;48.328;10.096;2022-09-09T04:45:48;4.87;;;3.77;;
45548;SDS011;31270;48.328;10.096;2022-09-09T04:48:19;7.50;;;3.57;;
45548;SDS011;31270;48.328;10.096;2022-09-09T04:50:58;4.90;;;3.63;;
45548;SDS011;31270;48.328;10.096;2022-09-09T04:53:29;4.60;;;3.57;;
45548;SDS011;31270;48.328;10.096;2022-09-09T04:56:02;5.28;;;4.15;;
45548;SDS011;31270;48.328;10.096;2022-09-09T04:58:30;4.43;;;3.67;;
45548;SDS011;31270;48.328;10.096;2022-09-09T05:01:02;7.27;;;3.87;;
45548;SDS011;31270;48.328;10.096;2022-09-09T05:03:35;9.83;;;3.90;;
45548;SDS011;31270;48.328;10.096;2022-09-09T05:06:05;8.00;;;3.70;;
45548;SDS011;31270;48.328;10.096;2022-09-09T05:08:33;8.63;;;4.10;;
45548;SDS011;31270;48.328;10.096;2022-09-09T05:10:59;6.53;;;3.50;;
45548;SDS011;31270;48.328;10.096;2022-09-09T05:13:25;7.03;;;3.73;;
45548;SDS011;31270;48.328;10.096;2022-09-09T05:15:54;4.53;;;3.40;;
45548;SDS011;31270;48.328;10.096;2022-09-09T05:18:20;4.50;;;3.87;;
45548;SDS011;31270;48.328;10.096;2022-09-09T05:20:47;8.00;;;3.87;;
45548;SDS011;31270;48.328;10.096;2022-09-09T05:23:13;6.30;;;3.93;;
45548;SDS011;31270;48.328;10.096;2022-09-09T05:25:39;8.90;;;3.70;;
45548;SDS011;31270;48.328;10.096;2022-09-09T05:28:08;8.27;;;3.93;;
45548;SDS011;31270;48.328;10.096;2022-09-09T05:30:34;4.13;;;3.60;;
45548;SDS011;31270;48.328;10.096;2022-09-09T05:32:59;3.93;;;3.40;;
45548;SDS011;31270;48.328;10.096;2022-09-09T05:35:25;7.07;;;3.77;;
45548;SDS011;31270;48.328;10.096;2022-09-09T05:37:51;9.67;;;4.10;;
45548;SDS011;31270;48.328;10.096;2022-09-09T05:40:17;6.03;;;3.40;;
45548;SDS011;31270;48.328;10.096;2022-09-09T05:42:43;4.50;;;3.10;;
45548;SDS011;31270;48.328;10.096;2022-09-09T05:45:09;5.87;;;3.57;;
45548;SDS011;31270;48.328;10.096;2022-09-09T05:47:35;8.13;;;3.50;;
45548;SDS011;31270;48.328;10.096;2022-09-09T05:50:02;5.13;;;3.40;;
45548;SDS011;31270;48.328;10.096;2022-09-09T05:52:28;6.43;;;4.17;;
45548;SDS011;31270;48.328;10.096;2022-09-09T05:54:54;6.87;;;3.43;;
45548;SDS011;31270;48.328;10.096;2022-09-09T05:57:21;7.23;;;3.20;;
45548;SDS011;31270;48.328;10.096;2022-09-09T05:59:47;3.63;;;3.27;;
45548;SDS011;31270;48.328;10.096;2022-09-09T06:02:15;7.30;;;3.63;;
45548;SDS011;31270;48.328;10.096;2022-09-09T06:04:40;5.80;;;3.73;;
45548;SDS011;31270;48.328;10.096;2022-09-09T06:07:06;5.13;;;3.50;;
45548;SDS011;31270;48.328;10.096;2022-09-09T06:09:32;6.50;;;3.03;;
45548;SDS011;31270;48.328;10.096;2022-09-09T06:11:58;3.73;;;2.67;;
45548;SDS011;31270;48.328;10.096;2022-09-09T06:14:23;6.30;;;2.93;;
45548;SDS011;31270;48.328;10.096;2022-09-09T06:16:50;5.07;;;2.63;;
45548;SDS011;31270;48.328;10.096;2022-09-09T06:19:16;7.40;;;3.00;;
45548;SDS011;31270;48.328;10.096;2022-09-09T06:21:42;10.20;;;3.20;;
45548;SDS011;31270;48.328;10.096;2022-09-09T06:24:09;9.10;;;3.63;;
45548;SDS011;31270;48.328;10.096;2022-09-09T06:26:37;2.92;;;2.40;;
45548;SDS011;31270;48.328;10.096;2022-09-09T06:29:06;6.27;;;2.97;;
45548;SDS011;31270;48.328;10.096;2022-09-09T06:31:33;4.35;;;2.70;;
45548;SDS011;31270;48.328;10.096;2022-09-09T06:33:59;11.27;;;2.67;;
45548;SDS011;31270;48.328;10.096;2022-09-09T06:36:30;4.05;;;2.67;;
45548;SDS011;31270;48.328;10.096;2022-09-09T06:38:58;3.83;;;2.83;;
45548;SDS011;31270;48.328;10.096;2022-09-09T06:41:25;6.82;;;2.58;;
45548;SDS011;31270;48.328;10.096;2022-09-09T06:43:52;4.35;;;3.00;;
45548;SDS011;31270;48.328;10.096;2022-09-09T06:46:19;7.00;;;3.45;;
45548;SDS011;31270;48.328;10.096;2022-09-09T06:48:50;6.87;;;3.60;;
45548;SDS011;31270;48.328;10.096;2022-09-09T06:51:17;6.28;;;3.60;;
45548;SDS011;31270;48.328;10.096;2022-09-09T06:53:46;8.20;;;3.47;;
45548;SDS011;31270;48.328;10.096;2022-09-09T06:58:58;10.75;;;3.47;;
45548;SDS011;31270;48.328;10.096;2022-09-09T07:01:28;3.55;;;3.03;;
45548;SDS011;31270;48.328;10.096;2022-09-09T07:03:56;6.75;;;3.15;;
45548;SDS011;31270;48.328;10.096;2022-09-09T07:06:27;4.35;;;3.13;;
45548;SDS011;31270;48.328;10.096;2022-09-09T07:08:56;3.30;;;3.00;;
45548;SDS011;31270;48.328;10.096;2022-09-09T07:11:25;4.35;;;2.90;;
45548;SDS011;31270;48.328;10.096;2022-09-09T07:13:56;6.72;;;3.20;;
45548;SDS011;31270;48.328;10.096;2022-09-09T07:16:23;9.55;;;3.00;;
45548;SDS011;31270;48.328;10.096;2022-09-09T07:18:50;5.85;;;2.63;;
45548;SDS011;31270;48.328;10.096;2022-09-09T07:21:17;4.43;;;3.05;;
45548;SDS011;31270;48.328;10.096;2022-09-09T07:23:43;5.53;;;3.20;;
45548;SDS011;31270;48.328;10.096;2022-09-09T07:26:10;7.28;;;3.20;;
45548;SDS011;31270;48.328;10.096;2022-09-09T07:28:41;6.00;;;3.30;;
45548;SDS011;31270;48.328;10.096;2022-09-09T07:31:09;3.05;;;2.55;;
45548;SDS011;31270;48.328;10.096;2022-09-09T07:33:40;5.32;;;2.90;;
45548;SDS011;31270;48.328;10.096;2022-09-09T07:36:27;6.28;;;2.67;;
45548;SDS011;31270;48.328;10.096;2022-09-09T07:38:54;4.40;;;2.88;;
45548;SDS011;31270;48.328;10.096;2022-09-09T07:41:22;3.45;;;2.65;;
45548;SDS011;31270;48.328;10.096;2022-09-09T07:43:50;3.22;;;2.80;;
45548;SDS011;31270;48.328;10.096;2022-09-09T07:46:19;5.25;;;3.03;;
45548;SDS011;31270;48.328;10.096;2022-09-09T07:48:55;3.60;;;2.45;;
45548;SDS011;31270;48.328;10.096;2022-09-09T07:51:25;7.32;;;2.92;;
45548;SDS011;31270;48.328;10.096;2022-09-09T07:53:57;9.45;;;2.53;;
45548;SDS011;31270;48.328;10.096;2022-09-09T07:56:25;6.78;;;2.60;;
45548;SDS011;31270;48.328;10.096;2022-09-09T07:58:52;3.67;;;2.40;;
45548;SDS011;31270;48.328;10.096;2022-09-09T08:03:54;3.25;;;2.55;;
45548;SDS011;31270;48.328;10.096;2022-09-09T08:06:22;7.18;;;2.95;;
45548;SDS011;31270;48.328;10.096;2022-09-09T08:08:49;3.67;;;2.55;;
45548;SDS011;31270;48.328;10.096;2022-09-09T08:11:16;3.33;;;2.55;;
45548;SDS011;31270;48.328;10.096;2022-09-09T08:13:42;4.45;;;2.45;;
45548;SDS011;31270;48.328;10.096;2022-09-09T08:16:13;6.20;;;3.03;;
45548;SDS011;31270;48.328;10.096;2022-09-09T08:18:41;5.28;;;2.45;;
45548;SDS011;31270;48.328;10.096;2022-09-09T08:21:15;4.07;;;2.25;;
45548;SDS011;31270;48.328;10.096;2022-09-09T08:23:42;4.32;;;2.65;;
45548;SDS011;31270;48.328;10.096;2022-09-09T08:26:17;4.55;;;2.60;;
45548;SDS011;31270;48.328;10.096;2022-09-09T08:28:47;4.43;;;2.35;;
45548;SDS011;31270;48.328;10.096;2022-09-09T08:31:19;5.60;;;2.67;;
45548;SDS011;31270;48.328;10.096;2022-09-09T08:33:46;4.55;;;2.35;;
45548;SDS011;31270;48.328;10.096;2022-09-09T08:36:16;2.88;;;1.92;;
45548;SDS011;31270;48.328;10.096;2022-09-09T08:38:46;3.38;;;2.10;;
45548;SDS011;31270;48.328;10.096;2022-09-09T08:44:19;5.43;;;1.90;;
45548;SDS011;31270;48.328;10.096;2022-09-09T08:52:09;3.38;;;1.88;;
45548;SDS011;31270;48.328;10.096;2022-09-09T08:54:41;4.70;;;2.15;;
45548;SDS011;31270;48.328;10.096;2022-09-09T08:57:09;4.03;;;2.05;;
45548;SDS011;31270;48.328;10.096;2022-09-09T08:59:39;3.00;;;1.88;;
45548;SDS011;31270;48.328;10.096;2022-09-09T09:04:50;2.47;;;1.73;;
45548;SDS011;31270;48.328;10.096;2022-09-09T09:07:35;3.97;;;1.60;;
45548;SDS011;31270;48.328;10.096;2022-09-09T09:13:07;4.68;;;1.65;;
45548;SDS011;31270;48.328;10.096;2022-09-09T09:15:39;2.80;;;1.92;;
45548;SDS011;31270;48.328;10.096;2022-09-09T09:18:07;5.55;;;2.08;;
45548;SDS011;31270;48.328;10.096;2022-09-09T09:23:28;3.00;;;1.73;;
45548;SDS011;31270;48.328;10.096;2022-09-09T09:26:09;3.13;;;2.05;;
45548;SDS011;31270;48.328;10.096;2022-09-09T09:28:36;1.92;;;1.70;;
45548;SDS011;31270;48.328;10.096;2022-09-09T09:31:06;2.13;;;1.48;;
45548;SDS011;31270;48.328;10.096;2022-09-09T09:36:05;2.92;;;1.48;;
45548;SDS011;31270;48.328;10.096;2022-09-09T09:38:35;2.50;;;1.45;;
45548;SDS011;31270;48.328;10.096;2022-09-09T09:41:02;1.92;;;1.23;;
45548;SDS011;31270;48.328;10.096;2022-09-09T09:43:28;2.25;;;1.73;;
45548;SDS011;31270;48.328;10.096;2022-09-09T09:45:56;2.70;;;1.35;;
45548;SDS011;31270;48.328;10.096;2022-09-09T09:48:26;2.60;;;1.48;;
45548;SDS011;31270;48.328;10.096;2022-09-09T09:53:27;5.10;;;1.35;;
45548;SDS011;31270;48.328;10.096;2022-09-09T09:56:00;3.60;;;1.30;;
45548;SDS011;31270;48.328;10.096;2022-09-09T09:58:29;5.05;;;1.73;;
45548;SDS011;31270;48.328;10.096;2022-09-09T10:00:58;7.55;;;1.58;;
45548;SDS011;31270;48.328;10.096;2022-09-09T10:05:52;1.42;;;1.00;;
45548;SDS011;31270;48.328;10.096;2022-09-09T10:08:18;3.25;;;1.25;;
45548;SDS011;31270;48.328;10.096;2022-09-09T10:16:28;3.88;;;1.00;;
45548;SDS011;31270;48.328;10.096;2022-09-09T10:19:05;2.05;;;1.00;;
45548;SDS011;31270;48.328;10.096;2022-09-09T10:33:45;2.20;;;1.17;;
45548;SDS011;31270;48.328;10.096;2022-09-09T10:36:40;3.60;;;1.02;;
45548;SDS011;31270;48.328;10.096;2022-09-09T10:42:15;3.33;;;1.13;;
45548;SDS011;31270;48.328;10.096;2022-09-09T10:44:56;4.07;;;0.90;;
45548;SDS011;31270;48.328;10.096;2022-09-09T10:52:52;2.60;;;1.02;;
45548;SDS011;31270;48.328;10.096;2022-09-09T10:55:23;5.85;;;1.13;;
45548;SDS011;31270;48.328;10.096;2022-09-09T10:57:55;2.55;;;1.02;;
45548;SDS011;31270;48.328;10.096;2022-09-09T11:00:30;2.80;;;0.90;;
45548;SDS011;31270;48.328;10.096;2022-09-09T11:03:02;3.83;;;0.90;;
45548;SDS011;31270;48.328;10.096;2022-09-09T11:05:36;3.33;;;1.00;;
45548;SDS011;31270;48.328;10.096;2022-09-09T11:13:03;4.20;;;1.05;;
45548;SDS011;31270;48.328;10.096;2022-09-09T11:15:45;3.60;;;0.75;;
45548;SDS011;31270;48.328;10.096;2022-09-09T11:18:19;1.00;;;0.63;;
45548;SDS011;31270;48.328;10.096;2022-09-09T11:20:49;2.42;;;1.08;;
45548;SDS011;31270;48.328;10.096;2022-09-09T11:23:24;2.35;;;1.00;;
45548;SDS011;31270;48.328;10.096;2022-09-09T11:25:58;1.13;;;0.93;;
45548;SDS011;31270;48.328;10.096;2022-09-09T11:33:49;1.83;;;0.60;;
45548;SDS011;31270;48.328;10.096;2022-09-09T11:44:41;2.45;;;1.20;;
45548;SDS011;31270;48.328;10.096;2022-09-09T11:47:21;2.13;;;0.70;;
45548;SDS011;31270;48.328;10.096;2022-09-09T11:49:55;2.53;;;1.00;;
45548;SDS011;31270;48.328;10.096;2022-09-09T11:52:40;3.65;;;1.08;;
45548;SDS011;31270;48.328;10.096;2022-09-09T11:55:23;1.90;;;0.85;;
45548;SDS011;31270;48.328;10.096;2022-09-09T12:00:33;1.15;;;0.75;;
45548;SDS011;31270;48.328;10.096;2022-09-09T12:03:02;1.13;;;0.80;;
45548;SDS011;31270;48.328;10.096;2022-09-09T12:05:39;1.38;;;0.80;;
45548;SDS011;31270;48.328;10.096;2022-09-09T12:08:09;1.80;;;1.00;;
45548;SDS011;31270;48.328;10.096;2022-09-09T12:10:40;2.15;;;0.73;;
45548;SDS011;31270;48.328;10.096;2022-09-09T12:13:19;1.90;;;0.70;;
45548;SDS011;31270;48.328;10.096;2022-09-09T12:15:51;1.38;;;0.70;;
45548;SDS011;31270;48.328;10.096;2022-09-09T12:18:22;2.05;;;0.90;;
45548;SDS011;31270;48.328;10.096;2022-09-09T12:27:01;3.17;;;1.70;;
45548;SDS011;31270;48.328;10.096;2022-09-09T12:29:40;3.58;;;1.33;;
45548;SDS011;31270;48.328;10.096;2022-09-09T12:32:15;3.30;;;0.90;;
45548;SDS011;31270;48.328;10.096;2022-09-09T12:37:21;1.55;;;0.70;;
45548;SDS011;31270;48.328;10.096;2022-09-09T12:40:00;2.55;;;0.70;;
45548;SDS011;31270;48.328;10.096;2022-09-09T12:42:29;1.63;;;0.90;;
45548;SDS011;31270;48.328;10.096;2022-09-09T12:44:55;1.85;;;1.00;;
45548;SDS011;31270;48.328;10.096;2022-09-09T12:47:24;2.15;;;0.95;;
45548;SDS011;31270;48.328;10.096;2022-09-09T12:49:55;2.88;;;0.88;;
45548;SDS011;31270;48.328;10.096;2022-09-09T12:55:04;1.00;;;0.80;;
45548;SDS011;31270;48.328;10.096;2022-09-09T12:57:36;0.98;;;0.60;;
45548;SDS011;31270;48.328;10.096;2022-09-09T13:00:06;1.23;;;0.75;;
45548;SDS011;31270;48.328;10.096;2022-09-09T13:05:42;1.42;;;0.80;;
45548;SDS011;31270;48.328;10.096;2022-09-09T13:08:13;0.93;;;0.70;;
45548;SDS011;31270;48.328;10.096;2022-09-09T13:10:42;1.10;;;0.70;;
45548;SDS011;31270;48.328;10.096;2022-09-09T13:13:20;3.55;;;1.20;;
45548;SDS011;31270;48.328;10.096;2022-09-09T13:15:58;1.15;;;0.80;;
45548;SDS011;31270;48.328;10.096;2022-09-09T13:18:27;1.92;;;1.00;;
45548;SDS011;31270;48.328;10.096;2022-09-09T13:20:55;1.35;;;1.08;;
45548;SDS011;31270;48.328;10.096;2022-09-09T13:23:23;2.30;;;0.80;;
45548;SDS011;31270;48.328;10.096;2022-09-09T13:26:53;3.35;;;0.80;;
45548;SDS011;31270;48.328;10.096;2022-09-09T13:28:50;1.02;;;0.93;;
45548;SDS011;31270;48.328;10.096;2022-09-09T13:31:22;1.42;;;0.80;;
45548;SDS011;31270;48.328;10.096;2022-09-09T13:33:52;2.30;;;0.90;;
45548;SDS011;31270;48.328;10.096;2022-09-09T13:36:27;1.75;;;0.80;;
45548;SDS011;31270;48.328;10.096;2022-09-09T13:38:55;2.47;;;0.90;;
45548;SDS011;31270;48.328;10.096;2022-09-09T13:41:22;1.33;;;0.80;;
45548;SDS011;31270;48.328;10.096;2022-09-09T13:43:57;1.15;;;0.70;;
45548;SDS011;31270;48.328;10.096;2022-09-09T13:46:24;1.20;;;0.80;;
45548;SDS011;31270;48.328;10.096;2022-09-09T13:51:36;1.50;;;0.73;;
45548;SDS011;31270;48.328;10.096;2022-09-09T13:54:08;2.50;;;1.08;;
45548;SDS011;31270;48.328;10.096;2022-09-09T13:56:35;1.83;;;1.10;;
45548;SDS011;31270;48.328;10.096;2022-09-09T13:59:03;1.60;;;1.00;;
45548;SDS011;31270;48.328;10.096;2022-09-09T14:01:30;2.33;;;0.90;;
45548;SDS011;31270;48.328;10.096;2022-09-09T14:03:56;2.42;;;0.90;;
45548;SDS011;31270;48.328;10.096;2022-09-09T14:06:22;1.83;;;0.90;;
45548;SDS011;31270;48.328;10.096;2022-09-09T14:08:51;1.88;;;1.10;;
45548;SDS011;31270;48.328;10.096;2022-09-09T14:11:17;1.92;;;0.98;;
45548;SDS011;31270;48.328;10.096;2022-09-09T14:13:44;2.50;;;1.10;;
45548;SDS011;31270;48.328;10.096;2022-09-09T14:16:09;1.73;;;1.08;;
45548;SDS011;31270;48.328;10.096;2022-09-09T14:18:35;2.90;;;0.80;;
45548;SDS011;31270;48.328;10.096;2022-09-09T14:21:02;2.75;;;1.10;;
45548;SDS011;31270;48.328;10.096;2022-09-09T14:23:28;2.30;;;0.90;;
45548;SDS011;31270;48.328;10.096;2022-09-09T14:25:55;2.53;;;1.10;;
45548;SDS011;31270;48.328;10.096;2022-09-09T14:28:20;3.97;;;1.10;;
45548;SDS011;31270;48.328;10.096;2022-09-09T14:30:46;2.03;;;0.95;;
45548;SDS011;31270;48.328;10.096;2022-09-09T14:33:13;1.02;;;0.70;;
45548;SDS011;31270;48.328;10.096;2022-09-09T14:35:41;3.50;;;1.00;;
45548;SDS011;31270;48.328;10.096;2022-09-09T14:38:08;0.93;;;0.70;;
45548;SDS011;31270;48.328;10.096;2022-09-09T14:40:34;2.60;;;0.80;;
45548;SDS011;31270;48.328;10.096;2022-09-09T14:43:01;3.33;;;0.95;;
45548;SDS011;31270;48.328;10.096;2022-09-09T14:45:27;0.93;;;0.60;;
45548;SDS011;31270;48.328;10.096;2022-09-09T14:47:53;0.70;;;0.70;;
45548;SDS011;31270;48.328;10.096;2022-09-09T14:50:19;2.88;;;0.95;;
45548;SDS011;31270;48.328;10.096;2022-09-09T14:52:46;1.80;;;0.73;;
45548;SDS011;31270;48.328;10.096;2022-09-09T14:55:12;3.70;;;1.13;;
45548;SDS011;31270;48.328;10.096;2022-09-09T14:57:38;3.17;;;0.90;;
45548;SDS011;31270;48.328;10.096;2022-09-09T15:00:05;4.32;;;1.00;;
45548;SDS011;31270;48.328;10.096;2022-09-09T15:02:33;8.65;;;0.98;;
45548;SDS011;31270;48.328;10.096;2022-09-09T15:05:00;3.35;;;0.80;;
45548;SDS011;31270;48.328;10.096;2022-09-09T15:07:26;3.60;;;0.77;;
45548;SDS011;31270;48.328;10.096;2022-09-09T15:09:53;3.00;;;0.98;;
45548;SDS011;31270;48.328;10.096;2022-09-09T15:12:19;3.55;;;1.00;;
45548;SDS011;31270;48.328;10.096;2022-09-09T15:14:45;1.40;;;0.80;;
45548;SDS011;31270;48.328;10.096;2022-09-09T15:17:12;3.55;;;1.25;;
45548;SDS011;31270;48.328;10.096;2022-09-09T15:19:37;2.40;;;1.02;;
45548;SDS011;31270;48.328;10.096;2022-09-09T15:22:03;3.38;;;1.10;;
45548;SDS011;31270;48.328;10.096;2022-09-09T15:24:32;3.45;;;1.00;;
45548;SDS011;31270;48.328;10.096;2022-09-09T15:26:59;1.60;;;0.90;;
45548;SDS011;31270;48.328;10.096;2022-09-09T15:29:25;3.53;;;0.70;;
45548;SDS011;31270;48.328;10.096;2022-09-09T15:31:50;3.67;;;0.73;;
45548;SDS011;31270;48.328;10.096;2022-09-09T15:34:17;2.30;;;0.73;;
45548;SDS011;31270;48.328;10.096;2022-09-09T15:36:44;1.20;;;0.90;;
45548;SDS011;31270;48.328;10.096;2022-09-09T15:39:12;2.58;;;0.70;;
45548;SDS011;31270;48.328;10.096;2022-09-09T15:41:44;3.35;;;0.80;;
45548;SDS011;31270;48.328;10.096;2022-09-09T15:44:12;3.70;;;0.80;;
45548;SDS011;31270;48.328;10.096;2022-09-09T15:46:39;4.40;;;0.80;;
45548;SDS011;31270;48.328;10.096;2022-09-09T15:51:40;5.15;;;0.80;;
45548;SDS011;31270;48.328;10.096;2022-09-09T15:54:08;2.72;;;0.70;;
45548;SDS011;31270;48.328;10.096;2022-09-09T15:56:34;3.45;;;0.70;;
45548;SDS011;31270;48.328;10.096;2022-09-09T15:59:00;2.22;;;0.85;;
45548;SDS011;31270;48.328;10.096;2022-09-09T16:01:28;1.52;;;0.88;;
45548;SDS011;31270;48.328;10.096;2022-09-09T16:03:55;2.15;;;0.70;;
45548;SDS011;31270;48.328;10.096;2022-09-09T16:06:23;0.93;;;0.70;;
45548;SDS011;31270;48.328;10.096;2022-09-09T16:08:50;2.67;;;0.63;;
45548;SDS011;31270;48.328;10.096;2022-09-09T16:11:21;1.95;;;0.75;;
45548;SDS011;31270;48.328;10.096;2022-09-09T16:13:52;2.00;;;0.77;;
45548;SDS011;31270;48.328;10.096;2022-09-09T16:16:20;2.63;;;0.88;;
45548;SDS011;31270;48.328;10.096;2022-09-09T16:18:48;2.83;;;0.52;;
45548;SDS011;31270;48.328;10.096;2022-09-09T16:21:20;0.60;;;0.60;;
45548;SDS011;31270;48.328;10.096;2022-09-09T16:23:49;1.65;;;1.00;;
45548;SDS011;31270;48.328;10.096;2022-09-09T16:26:16;2.90;;;0.70;;
45548;SDS011;31270;48.328;10.096;2022-09-09T16:28:43;2.80;;;0.85;;
45548;SDS011;31270;48.328;10.096;2022-09-09T16:31:18;2.97;;;0.90;;
45548;SDS011;31270;48.328;10.096;2022-09-09T16:33:46;2.90;;;0.70;;
45548;SDS011;31270;48.328;10.096;2022-09-09T16:36:13;2.03;;;0.63;;
45548;SDS011;31270;48.328;10.096;2022-09-09T16:38:41;1.25;;;0.50;;
45548;SDS011;31270;48.328;10.096;2022-09-09T16:41:09;1.48;;;0.60;;
45548;SDS011;31270;48.328;10.096;2022-09-09T16:43:35;3.08;;;0.70;;
45548;SDS011;31270;48.328;10.096;2022-09-09T16:46:15;1.55;;;0.70;;
45548;SDS011;31270;48.328;10.096;2022-09-09T16:48:42;4.15;;;0.70;;
45548;SDS011;31270;48.328;10.096;2022-09-09T16:51:11;2.35;;;0.80;;
45548;SDS011;31270;48.328;10.096;2022-09-09T16:53:39;6.55;;;0.93;;
45548;SDS011;31270;48.328;10.096;2022-09-09T16:56:08;3.65;;;0.80;;